Saint George Island, AK

7:21 AM HADT on October 31, 2014 (GMT -0900)
Saint George | Change Station
CLOSE
Current Station
Airport
Location: St. George,
Elevation: 125 ft
Nearby Weather Stations

Elev 125 ft 56.58 °N, 169.66 °W | Updated 28 minutes ago

Overcast
Overcast
42 °F
Feels Like 37 °F
N
9
Wind Variable Wind from East

Today
High -- | Low -- °F
--% Chance of Precip.
Yesterday
High -- | Low -- °F
Precip. -- in
9:26 AM 6:37 PM
First Quarter, 56% visible
Pressure 28.55 in
Visibility 8.0 miles
Clouds Mostly Cloudy 1300 ft
Overcast 1800 ft
Windchill 37 °F
Dew Point 40 °F
Humidity 92%
Rainfall 0.00 in
Snow Depth Not available.
UV 0 out of 12
Pollen Not available.
Air Quality Not available.
Flu Activity Not available.
METAR PAPB 311553Z AUTO 10008KT 8SM BKN013 OVC018 06/04 A2858 RMK AO2 RAE09 SLP666 P0000 T00560044 TSNO

More Conditions Fewer Conditions

Pressure 28.55 in
Visibility 8.0 miles
Clouds Mostly Cloudy 1300 ft
Overcast 1800 ft
Windchill 37 °F
Dew Point 40 °F
Humidity 92%
Rainfall 0.00 in
Snow Depth Not available.
UV 0 out of 12
Pollen Not available.
Air Quality Not available.
Flu Activity Not available.
METAR PAPB 311553Z AUTO 10008KT 8SM BKN013 OVC018 06/04 A2858 RMK AO2 RAE09 SLP666 P0000 T00560044 TSNO

More Conditions Fewer Conditions

10-Day Weather Forecast

Almanac

Astronomy

Oct. 31, 2014 Rise Set
Actual Time
Civil Twilight
Nautical Twilight
Astronomical Twilight
Moon
Length of Visible Light
Length of Day
Tomorrow will be .
, % of the Moon is Illuminated

Today's Extremes

State Highs State Lows

Community

WunderPhotos

Upload Photos

1,766,652 photos uploaded!

WunderBlogs® & News

Nearby

Air Quality

  Air Quality AQ Index Pollutant
Not available.

Snow Depth

Station Depth Elevation

Earthquake Activity

City Distance Mag. Time & Date
Minimum magnitude displayed is 2.5.

Coastal Water Temperatures

Place Temperature

Nearby Weather Stations